Accueil
METAR-TAF:

METAR-TAF

Aéroports :

Aéroport international de Bergame-Orio al Serio (Le Caravage)

Bergame, Italie

latitude: 45-40N, longitude: 009-42E, altitude: 238 m

Observation

Le bulletin a été fait il y a 43 minutes, à 15:20 UTC
Vent 1 kt de direction variable
Température 10°C
Humidité 66%
Pression 1017 hPa
Visibilité: 7000 m

METAR: LIME 271520Z VRB01KT 7000 NSC 10/04 Q1017 NOSIG

Heure: 17:03 (16:03 UTC)

Prévision

Le bulletin a été fait il y a 5 heures et 3 minutes, à 11:00 UTC
Prévision valable du 27 à 12 UTC au 28 à 12 UTC
Vent 5 kt de direction variable
Visibilité: 7000 m
Temporairement
du 27 à 21 UTC au 28 à 03 UTC
Visibilité: 4000 m
Nuages fragmentés à une hauteur de 1200 ft
Nuages fragmentés à une hauteur de 5000 ft
bruine
Temporairement
du 28 à 03 UTC au 28 à 06 UTC
Visibilité: 1500 m
bancs de brouillard

TAF: LIME 271100Z 2712/2812 VRB05KT 7000 NSC TEMPO 2721/2803 4000 DZ BKN012 BKN050 TEMPO 2803/2806 1500 BCFG

Observations et prévisions météorologiques de plus de 4000 aéroports (messages METAR et TAF).

Les stations disponibles sont représentées par des disques jaunes et rouges sur la carte.

Passer la souris dessus pour voir le nom de la station.

Cliquer dessus pour voir les observations et prévisions météorologiques.

Pour changer de carte: cliquez sur les boutons verts avec une croix noire pour zoomer, sur le bouton vert avec un tiret pour effectuer un zoom arrière, ou sur les flèches vertes pour les cartes adjacentes.


METAR-TAF: